createdAt,value
2023-11-15T00:01:13.946Z,12.03
2023-11-15T00:03:41.829Z,12.19
2023-11-15T00:06:09.737Z,12.20
2023-11-15T00:08:37.572Z,12.25
2023-11-15T00:11:05.640Z,12.20
2023-11-15T00:13:34.859Z,12.21
2023-11-15T00:16:02.515Z,12.23
2023-11-15T00:18:31.051Z,12.16
2023-11-15T00:20:58.556Z,11.99
2023-11-15T00:23:28.031Z,11.98
2023-11-15T00:25:55.685Z,12.02
2023-11-15T00:28:23.365Z,11.96
2023-11-15T00:30:50.927Z,11.93
2023-11-15T00:33:18.716Z,11.78
2023-11-15T00:35:46.404Z,11.70
2023-11-15T00:38:16.390Z,11.75
2023-11-15T00:40:44.192Z,11.71
2023-11-15T00:43:12.355Z,11.71
2023-11-15T00:45:39.975Z,11.72
2023-11-15T00:48:07.704Z,11.61
2023-11-15T00:50:35.366Z,11.54
2023-11-15T00:53:05.043Z,11.47
2023-11-15T00:55:32.689Z,11.45
2023-11-15T00:58:00.914Z,11.50
2023-11-15T01:00:28.711Z,11.54
2023-11-15T01:02:57.439Z,11.59
2023-11-15T01:05:25.870Z,11.53
2023-11-15T01:07:53.680Z,11.50
2023-11-15T01:10:22.164Z,11.50
2023-11-15T01:12:49.788Z,11.61
2023-11-15T01:15:17.594Z,11.60
2023-11-15T01:17:46.645Z,11.57
2023-11-15T01:20:14.634Z,11.38
2023-11-15T01:22:42.651Z,11.30
2023-11-15T01:25:10.724Z,11.33
2023-11-15T01:27:38.314Z,11.34
2023-11-15T01:30:06.672Z,11.43
2023-11-15T01:32:34.351Z,11.31
2023-11-15T01:35:02.094Z,11.39
2023-11-15T01:37:29.707Z,11.34
2023-11-15T01:39:57.468Z,11.30
2023-11-15T01:42:25.064Z,11.23
2023-11-15T01:44:52.768Z,11.20
2023-11-15T01:47:20.437Z,11.17
2023-11-15T01:49:48.066Z,11.15
2023-11-15T01:52:15.662Z,11.22
2023-11-15T01:54:43.364Z,11.29
2023-11-15T01:57:11.787Z,11.26
2023-11-15T01:59:39.400Z,11.24
2023-11-15T02:02:07.575Z,11.24
2023-11-15T02:04:35.098Z,11.26
2023-11-15T02:07:02.624Z,11.19
2023-11-15T02:09:31.365Z,11.19
2023-11-15T02:11:58.879Z,11.17
2023-11-15T02:14:26.776Z,11.09
2023-11-15T02:16:55.102Z,11.07
2023-11-15T02:19:22.756Z,11.09
2023-11-15T02:21:50.904Z,11.05
2023-11-15T02:24:18.579Z,11.00
2023-11-15T02:26:49.292Z,11.11
2023-11-15T02:29:16.872Z,11.07
2023-11-15T02:31:44.433Z,11.09
2023-11-15T02:34:11.928Z,11.16
2023-11-15T02:36:39.610Z,11.12
2023-11-15T02:39:10.160Z,11.22
2023-11-15T02:41:37.925Z,11.24
2023-11-15T02:44:05.963Z,11.31
2023-11-15T02:46:33.888Z,11.39
2023-11-15T02:49:01.604Z,11.41
2023-11-15T02:51:29.269Z,11.33
2023-11-15T02:53:58.205Z,11.47
2023-11-15T02:56:25.935Z,11.48
2023-11-15T02:58:53.605Z,11.38
2023-11-15T03:01:21.223Z,11.40
2023-11-15T03:03:48.908Z,11.40
2023-11-15T03:06:16.817Z,11.41
2023-11-15T03:08:44.451Z,11.45
2023-11-15T03:11:12.221Z,11.47
2023-11-15T03:13:39.813Z,11.46
2023-11-15T03:16:08.116Z,11.42
2023-11-15T03:18:35.738Z,11.35
2023-11-15T03:21:07.652Z,11.47
2023-11-15T03:23:35.149Z,11.54
2023-11-15T03:26:02.669Z,11.59
2023-11-15T03:28:30.945Z,11.63
2023-11-15T03:31:04.713Z,11.59
2023-11-15T03:33:32.423Z,11.55
2023-11-15T03:36:00.642Z,11.58
2023-11-15T03:38:28.168Z,11.58
2023-11-15T03:40:55.929Z,11.47
2023-11-15T03:43:24.123Z,11.39
2023-11-15T03:45:51.689Z,11.46
2023-11-15T03:48:19.514Z,11.59
2023-11-15T03:50:47.338Z,11.70
2023-11-15T03:53:14.897Z,11.74
2023-11-15T03:55:45.281Z,11.67
2023-11-15T03:58:13.863Z,11.58
2023-11-15T04:00:41.322Z,11.59
2023-11-15T04:03:09.206Z,11.54
2023-11-15T04:05:36.872Z,11.54
2023-11-15T04:08:04.883Z,11.44
2023-11-15T04:10:32.388Z,11.45
2023-11-15T04:13:00.579Z,11.53
2023-11-15T04:15:28.141Z,11.51
2023-11-15T04:17:55.736Z,11.55
2023-11-15T04:20:23.615Z,11.56
2023-11-15T04:22:51.317Z,11.37
2023-11-15T04:25:19.012Z,11.43
2023-11-15T04:27:46.588Z,11.45
2023-11-15T04:30:17.258Z,11.37
2023-11-15T04:32:46.743Z,11.25
2023-11-15T04:35:14.409Z,11.19
2023-11-15T04:37:41.965Z,11.18
2023-11-15T04:40:11.695Z,11.24
2023-11-15T04:42:40.234Z,11.23
2023-11-15T04:45:08.499Z,11.23
2023-11-15T04:47:36.782Z,11.42
2023-11-15T04:50:05.680Z,11.52
2023-11-15T04:52:33.250Z,11.59
2023-11-15T04:55:00.981Z,11.66
2023-11-15T04:57:30.648Z,11.63
2023-11-15T04:59:58.257Z,11.56
2023-11-15T05:02:28.765Z,11.57
2023-11-15T05:04:56.761Z,11.58
2023-11-15T05:07:26.564Z,11.52
2023-11-15T05:09:54.972Z,11.55
2023-11-15T05:14:50.175Z,11.57
2023-11-15T05:17:17.751Z,11.59
2023-11-15T05:19:45.705Z,11.62
2023-11-15T05:22:13.490Z,11.67
2023-11-15T05:24:42.159Z,11.73
2023-11-15T05:27:11.151Z,11.74
2023-11-15T05:29:38.945Z,11.79
2023-11-15T05:32:06.847Z,11.86
2023-11-15T05:34:34.843Z,11.90
2023-11-15T05:37:02.392Z,11.94
2023-11-15T05:39:30.465Z,11.99
2023-11-15T05:41:58.113Z,11.98
2023-11-15T05:44:25.879Z,12.02
2023-11-15T05:46:54.250Z,12.06
2023-11-15T05:49:21.870Z,12.10
2023-11-15T05:51:49.511Z,12.10
2023-11-15T05:54:17.622Z,12.11
2023-11-15T05:56:48.213Z,12.13
2023-11-15T05:59:15.773Z,12.15
2023-11-15T06:01:43.357Z,12.20
2023-11-15T06:04:11.925Z,12.21
2023-11-15T06:06:39.703Z,12.23
2023-11-15T06:09:07.403Z,12.26
2023-11-15T06:11:35.155Z,12.28
2023-11-15T06:14:03.085Z,12.33
2023-11-15T06:16:30.710Z,12.35
2023-11-15T06:18:59.527Z,12.39
2023-11-15T06:21:28.192Z,12.45
2023-11-15T06:23:56.790Z,12.45
2023-11-15T06:26:24.444Z,12.48
2023-11-15T06:28:56.003Z,12.48
2023-11-15T06:31:27.189Z,12.42
2023-11-15T06:33:54.990Z,12.44
2023-11-15T06:36:22.693Z,12.49
2023-11-15T06:38:50.954Z,12.52
2023-11-15T06:41:21.076Z,12.55
2023-11-15T06:43:53.296Z,12.60
2023-11-15T06:46:21.065Z,12.60
2023-11-15T06:48:49.122Z,12.59
2023-11-15T06:51:17.362Z,12.62
2023-11-15T06:53:47.329Z,12.63
2023-11-15T06:56:15.090Z,12.63
2023-11-15T06:58:45.543Z,12.66
2023-11-15T07:01:13.678Z,12.70
2023-11-15T07:03:48.249Z,12.73
2023-11-15T07:06:19.994Z,12.84
2023-11-15T07:08:48.080Z,12.89
2023-11-15T07:11:16.611Z,12.88
2023-11-15T07:13:47.119Z,12.91
2023-11-15T07:16:14.878Z,12.90
2023-11-15T07:18:43.248Z,12.95
2023-11-15T07:21:11.001Z,13.03
2023-11-15T07:23:41.758Z,13.12
2023-11-15T07:26:12.442Z,13.17
2023-11-15T07:28:43.632Z,13.23
2023-11-15T07:31:20.263Z,13.28
2023-11-15T07:33:48.266Z,13.34
2023-11-15T07:36:18.872Z,13.37
2023-11-15T07:38:49.850Z,13.45
2023-11-15T07:41:20.727Z,13.46
2023-11-15T07:43:49.356Z,13.46
2023-11-15T07:46:17.192Z,13.46
2023-11-15T07:48:44.982Z,13.52
2023-11-15T07:51:12.910Z,13.56
2023-11-15T07:53:40.581Z,13.57
2023-11-15T07:56:10.042Z,13.48
2023-11-15T07:58:38.361Z,13.53
2023-11-15T08:01:11.488Z,13.59
2023-11-15T08:03:40.965Z,13.65
2023-11-15T08:06:14.453Z,13.72
2023-11-15T08:08:45.177Z,13.74
2023-11-15T08:11:12.976Z,13.75
2023-11-15T08:13:40.737Z,13.76
2023-11-15T08:16:14.638Z,13.84
2023-11-15T08:18:46.481Z,13.92
2023-11-15T08:21:14.520Z,13.95
2023-11-15T08:23:43.649Z,13.95
2023-11-15T08:26:13.539Z,13.94
2023-11-15T08:28:45.436Z,13.92
2023-11-15T08:31:15.629Z,13.93
2023-11-15T08:33:46.247Z,13.92
2023-11-15T08:36:14.408Z,13.93
2023-11-15T08:38:42.156Z,13.74
2023-11-15T08:41:10.884Z,13.70
2023-11-15T08:43:39.222Z,13.61
2023-11-15T08:46:07.308Z,13.60
2023-11-15T08:48:38.553Z,13.57
2023-11-15T08:51:06.759Z,13.55
2023-11-15T08:53:34.523Z,13.54
2023-11-15T08:56:04.389Z,13.46
2023-11-15T08:58:32.922Z,13.50
2023-11-15T09:01:03.993Z,13.47
2023-11-15T09:03:32.081Z,13.45
2023-11-15T09:06:03.602Z,13.45
2023-11-15T09:08:33.733Z,13.46
2023-11-15T09:11:01.447Z,13.43
2023-11-15T09:13:30.605Z,13.37
2023-11-15T09:16:00.627Z,13.31
2023-11-15T09:18:32.202Z,13.32
2023-11-15T09:21:07.623Z,13.32
2023-11-15T09:23:37.952Z,13.34
2023-11-15T09:26:07.220Z,13.27
2023-11-15T09:28:35.752Z,13.27
2023-11-15T09:31:09.468Z,13.32
2023-11-15T09:33:37.607Z,13.36
2023-11-15T09:36:08.940Z,13.35
2023-11-15T09:38:36.784Z,13.29
2023-11-15T09:41:07.685Z,13.24
2023-11-15T09:43:36.294Z,13.29
2023-11-15T09:46:10.223Z,13.29
2023-11-15T09:48:40.162Z,13.29
2023-11-15T09:51:11.207Z,13.27
2023-11-15T09:53:40.065Z,13.28
2023-11-15T09:56:08.578Z,13.29
2023-11-15T09:58:36.553Z,13.29
2023-11-15T10:01:04.734Z,13.28
2023-11-15T10:03:32.579Z,13.20
2023-11-15T10:06:05.277Z,13.20
2023-11-15T10:08:33.329Z,13.18
2023-11-15T10:11:06.470Z,13.22
2023-11-15T10:13:39.558Z,13.21
2023-11-15T10:16:32.075Z,13.22
2023-11-15T10:19:03.610Z,13.25
2023-11-15T10:21:35.180Z,13.32
2023-11-15T10:24:14.317Z,13.29
2023-11-15T10:26:42.442Z,13.27
2023-11-15T10:29:14.259Z,13.26
2023-11-15T10:31:52.976Z,13.30
2023-11-15T10:34:34.160Z,13.36
2023-11-15T10:37:08.851Z,13.40
2023-11-15T10:39:45.912Z,13.42
2023-11-15T10:42:14.358Z,13.43
2023-11-15T10:44:43.459Z,13.41
2023-11-15T10:47:13.978Z,13.47
2023-11-15T10:49:44.929Z,13.50
2023-11-15T10:52:12.702Z,13.56
2023-11-15T10:54:40.279Z,13.62
2023-11-15T10:57:08.687Z,13.62
2023-11-15T10:59:38.384Z,13.64
2023-11-15T11:02:11.176Z,13.61
2023-11-15T11:04:40.486Z,13.63
2023-11-15T11:07:17.347Z,13.65
2023-11-15T11:10:01.239Z,13.71
2023-11-15T11:12:32.328Z,13.76
2023-11-15T11:15:25.146Z,13.82
2023-11-15T11:18:05.404Z,13.84
2023-11-15T11:20:38.961Z,13.82
2023-11-15T11:23:18.594Z,13.79
2023-11-15T11:25:49.762Z,13.83
2023-11-15T11:28:18.178Z,13.87
2023-11-15T11:30:46.175Z,13.93
2023-11-15T11:33:20.381Z,13.97
2023-11-15T11:35:49.627Z,13.94
2023-11-15T11:38:39.977Z,13.95
2023-11-15T11:41:10.220Z,14.04
2023-11-15T11:43:43.447Z,14.08
2023-11-15T11:46:15.750Z,14.07
2023-11-15T11:48:46.729Z,14.02
2023-11-15T11:51:15.914Z,14.04
2023-11-15T11:53:45.978Z,13.92
2023-11-15T11:56:15.370Z,13.85
2023-11-15T11:58:43.331Z,13.85
2023-11-15T12:01:14.883Z,13.77
2023-11-15T12:03:47.866Z,13.84
2023-11-15T12:06:16.467Z,13.89
2023-11-15T12:08:55.091Z,13.90
2023-11-15T12:11:24.461Z,13.90
2023-11-15T12:13:52.947Z,13.85
2023-11-15T12:16:27.075Z,13.81
2023-11-15T12:19:00.164Z,13.80
2023-11-15T12:21:44.142Z,13.81
2023-11-15T12:24:12.533Z,13.81
2023-11-15T12:26:50.099Z,13.78
2023-11-15T12:29:25.863Z,13.79
2023-11-15T12:31:56.633Z,13.72
2023-11-15T12:34:25.807Z,13.72
2023-11-15T12:36:53.575Z,13.70
2023-11-15T12:39:23.554Z,13.64
2023-11-15T12:41:53.855Z,13.65
2023-11-15T12:44:22.935Z,13.64
2023-11-15T12:46:58.732Z,13.69
2023-11-15T12:49:27.927Z,13.65
2023-11-15T12:51:56.242Z,13.60
2023-11-15T12:54:27.529Z,13.57
2023-11-15T12:57:15.422Z,13.52
2023-11-15T12:59:45.970Z,13.50
2023-11-15T13:02:19.820Z,13.51
2023-11-15T13:04:49.030Z,13.49
2023-11-15T13:07:19.674Z,13.33
2023-11-15T13:09:48.100Z,13.32
2023-11-15T13:12:45.345Z,13.35
2023-11-15T13:15:21.312Z,13.29
2023-11-15T13:17:50.316Z,13.21
2023-11-15T13:20:20.338Z,13.24
2023-11-15T13:22:55.059Z,13.23
2023-11-15T13:25:23.229Z,13.17
2023-11-15T13:27:51.516Z,13.09
2023-11-15T13:30:22.291Z,13.15
2023-11-15T13:32:50.371Z,13.14
2023-11-15T13:35:18.627Z,13.11
2023-11-15T13:37:52.611Z,13.02
2023-11-15T13:40:21.013Z,12.96
2023-11-15T13:42:50.559Z,12.93
2023-11-15T13:45:23.714Z,12.89
2023-11-15T13:47:52.085Z,12.82
2023-11-15T13:50:22.245Z,12.79
2023-11-15T13:52:51.606Z,12.79
2023-11-15T13:55:20.860Z,12.78
2023-11-15T13:57:52.315Z,12.80
2023-11-15T14:00:25.302Z,12.67
2023-11-15T14:02:53.264Z,12.71
2023-11-15T14:05:22.375Z,12.73
2023-11-15T14:07:50.661Z,12.70
2023-11-15T14:10:20.756Z,12.72
2023-11-15T14:12:48.594Z,12.73
2023-11-15T14:15:28.661Z,12.63
2023-11-15T14:17:56.464Z,12.54
2023-11-15T14:20:25.978Z,12.40
2023-11-15T14:22:57.041Z,12.38
2023-11-15T14:25:24.926Z,12.39
2023-11-15T14:27:56.387Z,12.41
2023-11-15T14:30:26.272Z,12.36
2023-11-15T14:32:55.536Z,12.31
2023-11-15T14:35:24.859Z,12.29
2023-11-15T14:37:56.543Z,12.35
2023-11-15T14:40:32.104Z,12.34
2023-11-15T14:43:00.256Z,12.30
2023-11-15T14:45:29.155Z,12.28
2023-11-15T14:48:02.456Z,12.27
2023-11-15T14:50:30.980Z,12.28
2023-11-15T14:53:28.287Z,12.33
2023-11-15T14:55:56.232Z,12.34
2023-11-15T14:58:27.441Z,12.37
2023-11-15T15:00:55.857Z,12.34
2023-11-15T15:03:29.848Z,12.33
2023-11-15T15:05:57.685Z,12.36
2023-11-15T15:08:25.848Z,12.38
2023-11-15T15:10:57.432Z,12.40
2023-11-15T15:13:25.995Z,12.43
2023-11-15T15:15:55.980Z,12.44
2023-11-15T15:18:32.352Z,12.44
2023-11-15T15:21:03.082Z,12.47
2023-11-15T15:23:33.960Z,12.48
2023-11-15T15:26:04.248Z,12.36
2023-11-15T15:28:55.285Z,12.30
2023-11-15T15:31:26.233Z,12.32
2023-11-15T15:33:54.482Z,12.36
2023-11-15T15:36:23.016Z,12.35
2023-11-15T15:39:04.817Z,12.35
2023-11-15T15:41:36.545Z,12.38
2023-11-15T15:44:05.061Z,12.33
2023-11-15T15:46:39.433Z,12.33
2023-11-15T15:49:10.831Z,12.31
2023-11-15T15:51:42.551Z,12.31
2023-11-15T15:54:18.338Z,12.32
2023-11-15T15:56:46.831Z,12.27
2023-11-15T15:59:14.931Z,12.32
2023-11-15T16:01:47.111Z,12.28
2023-11-15T16:04:17.218Z,12.28
2023-11-15T16:06:45.059Z,12.27
2023-11-15T16:09:13.031Z,12.29
2023-11-15T16:11:40.948Z,12.25
2023-11-15T16:14:09.064Z,12.26
2023-11-15T16:16:36.609Z,12.24
2023-11-15T16:19:04.519Z,12.20
2023-11-15T16:21:32.192Z,12.18
2023-11-15T16:24:01.279Z,12.19
2023-11-15T16:26:29.060Z,12.18
2023-11-15T16:28:56.990Z,12.17
2023-11-15T16:31:24.850Z,12.12
2023-11-15T16:33:52.716Z,12.11
2023-11-15T16:36:20.472Z,12.09
2023-11-15T16:38:48.278Z,12.10
2023-11-15T16:41:18.546Z,12.12
2023-11-15T16:43:46.384Z,12.05
2023-11-15T16:46:14.171Z,12.00
2023-11-15T16:48:44.249Z,12.00
2023-11-15T16:51:12.651Z,12.01
2023-11-15T16:53:40.343Z,12.09
2023-11-15T16:56:08.486Z,12.05
2023-11-15T16:58:36.196Z,12.05
2023-11-15T17:01:07.578Z,12.06
2023-11-15T17:03:35.721Z,12.10
2023-11-15T17:06:03.748Z,12.11
2023-11-15T17:08:33.404Z,12.10
2023-11-15T17:11:01.248Z,12.09
2023-11-15T17:13:29.338Z,12.00
2023-11-15T17:15:57.170Z,11.98
2023-11-15T17:18:25.467Z,11.99
2023-11-15T17:20:53.679Z,11.96
2023-11-15T17:23:21.363Z,11.98
2023-11-15T17:25:53.095Z,11.98
2023-11-15T17:28:20.901Z,11.97
2023-11-15T17:30:48.953Z,12.06
2023-11-15T17:33:17.718Z,12.03
2023-11-15T17:35:45.649Z,12.00
2023-11-15T17:38:13.428Z,12.00
2023-11-15T17:40:41.222Z,11.95
2023-11-15T17:43:08.824Z,11.90
2023-11-15T17:45:36.574Z,11.83
2023-11-15T17:48:04.465Z,11.86
2023-11-15T17:50:32.321Z,11.80
2023-11-15T17:53:00.093Z,11.77
2023-11-15T17:55:27.928Z,11.76
2023-11-15T17:57:55.730Z,11.74
2023-11-15T18:00:24.686Z,11.79
2023-11-15T18:02:52.547Z,11.76
2023-11-15T18:05:20.651Z,11.76
2023-11-15T18:07:48.300Z,11.80
2023-11-15T18:10:15.979Z,11.79
2023-11-15T18:12:44.318Z,11.76
2023-11-15T18:15:15.764Z,11.76
2023-11-15T18:17:43.458Z,11.61
2023-11-15T18:20:14.671Z,11.57
2023-11-15T18:22:42.927Z,11.59
2023-11-15T18:25:11.864Z,11.58
2023-11-15T18:27:40.978Z,11.72
2023-11-15T18:30:13.664Z,11.72
2023-11-15T18:32:45.444Z,11.68
2023-11-15T18:35:13.348Z,11.73
2023-11-15T18:37:41.556Z,11.66
2023-11-15T18:40:18.450Z,11.53
2023-11-15T18:42:46.476Z,11.51
2023-11-15T18:45:14.283Z,11.47
2023-11-15T18:47:42.458Z,11.52
2023-11-15T18:50:12.311Z,11.58
2023-11-15T18:52:42.980Z,11.58
2023-11-15T18:55:13.738Z,11.58
2023-11-15T18:57:42.921Z,11.59
2023-11-15T19:00:14.052Z,11.60
2023-11-15T19:02:45.034Z,11.55
2023-11-15T19:05:14.078Z,11.55
2023-11-15T19:07:41.932Z,11.55
2023-11-15T19:10:10.728Z,11.55
2023-11-15T19:12:38.701Z,11.51
2023-11-15T19:15:12.331Z,11.50
2023-11-15T19:17:41.467Z,11.51
2023-11-15T19:20:11.573Z,11.45
2023-11-15T19:22:42.008Z,11.46
2023-11-15T19:25:10.940Z,11.45
2023-11-15T19:27:39.690Z,11.44
2023-11-15T19:30:10.909Z,11.48
2023-11-15T19:32:38.868Z,11.56
2023-11-15T19:35:10.028Z,11.58
2023-11-15T19:37:39.291Z,11.55
2023-11-15T19:40:10.938Z,11.52
2023-11-15T19:42:39.891Z,11.57
2023-11-15T19:45:09.327Z,11.62
2023-11-15T19:47:37.142Z,11.63
2023-11-15T19:50:08.163Z,11.61
2023-11-15T19:52:35.900Z,11.58
2023-11-15T19:55:08.580Z,11.55
2023-11-15T19:57:40.851Z,11.57
2023-11-15T20:00:13.253Z,11.51
2023-11-15T20:02:47.114Z,11.49
2023-11-15T20:05:16.375Z,11.50
2023-11-15T20:07:44.448Z,11.50
2023-11-15T20:10:14.925Z,11.47
2023-11-15T20:12:42.835Z,11.50
2023-11-15T20:15:11.766Z,11.56
2023-11-15T20:17:39.829Z,11.55
2023-11-15T20:20:11.106Z,11.52
2023-11-15T20:22:46.008Z,11.44
2023-11-15T20:25:20.661Z,11.38
2023-11-15T20:27:48.435Z,11.43
2023-11-15T20:30:16.416Z,11.43
2023-11-15T20:32:44.296Z,11.35
2023-11-15T20:35:12.257Z,11.35
2023-11-15T20:37:39.963Z,11.34
2023-11-15T20:40:16.514Z,11.26
2023-11-15T20:42:47.900Z,11.22
2023-11-15T20:45:15.886Z,11.21
2023-11-15T20:47:43.813Z,11.19
2023-11-15T20:50:13.073Z,11.16
2023-11-15T20:52:41.116Z,11.08
2023-11-15T20:55:09.917Z,11.01
2023-11-15T20:57:37.841Z,11.05
2023-11-15T21:00:15.054Z,11.11
2023-11-15T21:02:42.898Z,11.06
2023-11-15T21:05:12.976Z,11.06
2023-11-15T21:07:42.079Z,11.06
2023-11-15T21:10:09.982Z,11.08
2023-11-15T21:12:37.613Z,10.97
2023-11-15T21:15:06.660Z,10.97
2023-11-15T21:17:34.512Z,10.95
2023-11-15T21:20:12.349Z,10.95
2023-11-15T21:22:41.173Z,10.97
2023-11-15T21:25:15.077Z,10.85
2023-11-15T21:27:43.777Z,10.82
2023-11-15T21:30:12.243Z,10.75
2023-11-15T21:32:43.650Z,10.70
2023-11-15T21:35:12.505Z,10.72
2023-11-15T21:37:44.241Z,10.74
2023-11-15T21:40:16.312Z,10.76
2023-11-15T21:42:47.189Z,10.77
2023-11-15T21:45:17.837Z,10.69
2023-11-15T21:47:48.513Z,10.64
2023-11-15T21:50:16.505Z,10.62
2023-11-15T21:52:44.972Z,10.56
2023-11-15T21:55:12.689Z,10.60
2023-11-15T21:57:40.425Z,10.65
2023-11-15T22:00:10.074Z,10.64
2023-11-15T22:02:37.657Z,10.65
2023-11-15T22:05:06.352Z,10.66
2023-11-15T22:07:33.937Z,10.64
2023-11-15T22:10:01.486Z,10.64
2023-11-15T22:12:29.155Z,10.72
2023-11-15T22:14:56.772Z,10.75
2023-11-15T22:17:24.257Z,10.71
2023-11-15T22:19:52.417Z,10.70
2023-11-15T22:22:19.965Z,10.76
2023-11-15T22:24:47.512Z,10.82
2023-11-15T22:27:15.248Z,10.79
2023-11-15T22:29:42.796Z,10.86
2023-11-15T22:32:10.340Z,10.86
2023-11-15T22:34:37.906Z,10.83
2023-11-15T22:37:05.446Z,10.82
2023-11-15T22:39:33.659Z,10.92
2023-11-15T22:42:01.276Z,10.90
2023-11-15T22:44:28.856Z,10.92
2023-11-15T22:46:56.447Z,10.86
2023-11-15T22:49:25.447Z,10.89
2023-11-15T22:51:52.998Z,10.90
2023-11-15T22:54:20.639Z,10.93
2023-11-15T22:56:48.247Z,10.91
2023-11-15T22:59:15.776Z,10.99
2023-11-15T23:01:43.291Z,11.14
2023-11-15T23:04:16.334Z,11.20
2023-11-15T23:06:45.922Z,11.15
2023-11-15T23:09:15.855Z,11.20
2023-11-15T23:11:43.418Z,11.23
2023-11-15T23:14:11.840Z,11.28
2023-11-15T23:16:40.689Z,11.36
2023-11-15T23:19:09.109Z,11.36
2023-11-15T23:21:37.669Z,11.27
2023-11-15T23:24:07.577Z,11.33
2023-11-15T23:26:35.225Z,11.35
2023-11-15T23:29:02.840Z,11.37
2023-11-15T23:31:30.385Z,11.36
2023-11-15T23:33:57.900Z,11.37
2023-11-15T23:36:25.391Z,11.37
2023-11-15T23:38:53.909Z,11.40
2023-11-15T23:41:21.444Z,11.38
2023-11-15T23:43:49.069Z,11.29
2023-11-15T23:46:16.833Z,11.23
2023-11-15T23:48:44.497Z,11.16
2023-11-15T23:51:11.972Z,11.22
2023-11-15T23:53:39.501Z,11.25
2023-11-15T23:56:07.840Z,11.22
2023-11-15T23:58:35.399Z,11.22
